Home   Weather   Black Rock Desert   Past weeks
Flag for USA

Past Weather in Black Rock Desert, Nevada, USA — Yesterday and Last 2 Weeks

Currently: 70 °F. Clear. (Weather station: Susanville Municipal, USA). See more current weather

Past Weather in Black Rock Desert — Graph

°F

Black Rock Desert Temperature Yesterday

Maximum temperature yesterday: 84 °F (at 3:15 pm)
Minimum temperature yesterday: 46 °F (at 5:15 am)
Average temperature yesterday: 64 °F

High & Low Weather Summary for the Past Weeks

 TemperatureHumidityPressure
High84 °F (Sep 25, 4:35 pm)100% (Sep 12, 11:35 pm)30.30 "Hg (Sep 12, 11:35 pm)
Low36 °F (Sep 22, 6:55 am)12% (Sep 16, 3:35 pm)29.70 "Hg (Sep 18, 4:55 am)
Average58 °F57%30.04 "Hg
* Reported Sep 12 8:15 pm — Sep 27 8:15 pm, Black Rock Desert. Weather by CustomWeather, © 2022

Note: Actual official high and low records may vary slightly from our data, if they occured in-between our weather recording intervals... More about our weather records

Black Rock Desert Weather History for the Previous 24 Hours

Scroll right to see more
 ConditionsComfort  
Time TempWeatherWind HumidityBarometerVisibility
8:15 pm
Tue, Sep 27
73 °FClear.9 mph19%30.09 "Hg10 mi
7:35 pm73 °FClear.10 mph22%30.08 "Hg10 mi
7:15 pm75 °FClear.8 mph21%30.08 "Hg10 mi
6:35 pm79 °FSunny.8 mph20%30.07 "Hg10 mi
6:15 pm79 °FSunny.7 mph20%30.06 "Hg10 mi
4:35 pm84 °FSunny.15 mph18%30.06 "Hg10 mi
4:15 pm84 °FSunny.16 mph18%30.06 "Hg10 mi
3:35 pm84 °FSunny.12 mph19%30.06 "Hg10 mi
3:15 pm84 °FSunny.17 mph19%30.06 "Hg10 mi
2:55 pm84 °FSunny.14 mph19%30.06 "Hg9 mi
2:35 pm84 °FSunny.9 mph22%30.07 "Hg10 mi
2:15 pm84 °FSunny.18 mph23%30.07 "Hg10 mi
1:35 pm82 °FSunny.3 mph23%30.08 "Hg10 mi
1:15 pm82 °FSunny.5 mph25%30.08 "Hg10 mi
12:35 pm82 °FSunny.3 mph25%30.10 "Hg10 mi
12:15 pm81 °FSunny.5 mph26%30.11 "Hg9 mi
11:55 am79 °FSunny.3 mph30%30.11 "Hg10 mi
11:35 am79 °FSunny.5 mph32%30.12 "Hg10 mi
11:15 am75 °FSunny.3 mph36%30.12 "Hg10 mi
10:35 am72 °FSunny.No wind41%30.13 "Hg10 mi
10:15 am70 °FSunny.No wind43%30.13 "Hg10 mi
9:35 am64 °FSunny.No wind56%30.13 "Hg10 mi
8:35 am57 °FSunny.3 mph67%30.13 "Hg10 mi
7:35 am50 °FSunny.No wind82%30.13 "Hg10 mi
7:15 am48 °FSunny.No wind87%30.12 "Hg10 mi
6:35 am50 °FClear.5 mph82%30.11 "Hg10 mi
6:15 am52 °FClear.3 mph77%30.11 "Hg10 mi
5:35 am52 °FClear.5 mph77%30.11 "Hg10 mi
5:15 am50 °FClear.5 mph82%30.11 "Hg10 mi
4:15 am54 °FClear.3 mph72%30.10 "Hg10 mi
3:55 am54 °FClear.5 mph72%30.09 "Hg10 mi
3:35 am54 °FClear.7 mph72%30.10 "Hg10 mi
2:35 am55 °FClear.3 mph67%30.10 "Hg10 mi
1:55 am57 °FClear.7 mph63%30.10 "Hg10 mi
1:35 am59 °FClear.7 mph59%30.10 "Hg10 mi
1:15 am57 °FClear.5 mph63%30.10 "Hg10 mi
12:35 am57 °FClear.3 mph63%30.10 "Hg10 mi
12:15 am59 °FClear.5 mph59%30.10 "Hg10 mi
11:35 pm
Mon, Sep 26
63 °FPassing clouds.7 mph52%30.11 "Hg10 mi
11:15 pm63 °FPassing clouds.3 mph52%30.11 "Hg10 mi
10:15 pm66 °FPassing clouds.9 mph46%30.10 "Hg10 mi
9:35 pm66 °FOvercast.7 mph46%30.10 "Hg10 mi
9:15 pm64 °FOvercast.3 mph49%30.10 "Hg10 mi
Weather by CustomWeather, © 2022

See weather overview